SESA/SNC METAR and TAF weather

Enter ICAO airport designator
Station Type Date Time Source
SESA METAR 2019/02/16 00:00 UTC NOAA

SESA 160000Z 25008KT 9999 FEW013 BKN090 27/24 Q1010


Station Type Date Time Source
SESA Decoded METAR 2019/02/16 00:00 UTC NOAA

Salinas / General Ulpiano Paez, Ecuador (SESA) 02-12S 080-59W 8M
Feb 15, 2019 - 07:00 PM EST / 2019.02.16 0000 UTC
Wind: from the WSW (250 degrees) at 9 MPH (8 KT):0
Visibility: greater than 7 mile(s):0
Sky conditions: mostly cloudy
Temperature: 80 F (27 C)
Dew Point: 75 F (24 C)
Relative Humidity: 83%
Pressure (altimeter): 29.83 in. Hg (1010 hPa)
ob: SESA 160000Z 25008KT 9999 FEW013 BKN090 27/24 Q1010
cycle: 0

Station Type Date Time Source
SESA TAF UTC NOAA

Error!


Example: see airport list